createdAt,value
2022-12-27T00:04:08.033Z,16.88
2022-12-27T00:09:12.031Z,18.83
2022-12-27T00:14:17.317Z,16.88
2022-12-27T00:19:21.357Z,18.35
2022-12-27T00:24:25.221Z,18.58
2022-12-27T00:29:30.490Z,18.80
2022-12-27T00:34:34.686Z,18.35
2022-12-27T00:39:38.624Z,19.02
2022-12-27T00:44:43.909Z,19.15
2022-12-27T00:49:47.771Z,19.13
2022-12-27T00:54:51.614Z,18.80
2022-12-27T00:59:56.897Z,18.70
2022-12-27T01:05:00.747Z,11.93
2022-12-27T01:10:05.120Z,18.42
2022-12-27T01:15:11.671Z,18.75
2022-12-27T01:20:15.584Z,17.48
2022-12-27T01:25:19.634Z,18.67
2022-12-27T01:30:25.707Z,17.63
2022-12-27T01:35:29.581Z,11.57
2022-12-27T01:40:33.418Z,18.52
2022-12-27T01:45:39.071Z,20.20
2022-12-27T01:50:45.697Z,19.02
2022-12-27T01:55:51.906Z,19.05
2022-12-27T02:00:58.265Z,19.10
2022-12-27T02:06:04.242Z,21.25
2022-12-27T02:11:09.587Z,19.48
2022-12-27T02:16:16.733Z,19.63
2022-12-27T02:21:44.286Z,20.15
2022-12-27T02:26:52.087Z,19.85
2022-12-27T02:32:02.059Z,19.27
2022-12-27T02:37:09.459Z,19.55
2022-12-27T02:42:31.580Z,18.85
2022-12-27T02:47:54.604Z,19.35
2022-12-27T02:53:08.126Z,19.60
2022-12-27T02:58:23.229Z,18.45
2022-12-27T03:03:44.650Z,19.17
2022-12-27T03:08:56.378Z,19.33
2022-12-27T03:14:24.017Z,19.50
2022-12-27T03:19:44.451Z,19.63
2022-12-27T03:25:06.076Z,18.65
2022-12-27T03:30:28.203Z,18.80
2022-12-27T03:35:36.005Z,19.55
2022-12-27T03:41:03.229Z,18.48
2022-12-27T03:46:31.926Z,19.45
2022-12-27T03:51:39.822Z,19.33
2022-12-27T03:56:43.841Z,19.23
2022-12-27T04:01:47.743Z,18.55
2022-12-27T04:06:53.137Z,19.73
2022-12-27T04:12:14.799Z,18.98
2022-12-27T04:17:36.118Z,19.35
2022-12-27T04:22:58.720Z,20.05
2022-12-27T04:28:20.281Z,19.58
2022-12-27T04:33:41.484Z,18.90
2022-12-27T04:38:46.765Z,18.35
2022-12-27T04:44:08.119Z,17.60
2022-12-27T04:49:33.057Z,17.48
2022-12-27T04:54:56.765Z,17.60
2022-12-27T05:00:17.956Z,17.98
2022-12-27T05:05:22.338Z,18.13
2022-12-27T05:10:44.973Z,18.60
2022-12-27T05:15:50.078Z,18.98
2022-12-27T05:20:53.951Z,18.37
2022-12-27T05:25:59.158Z,19.10
2022-12-27T05:31:03.795Z,10.85
2022-12-27T05:36:09.002Z,18.27
2022-12-27T05:41:14.683Z,17.88
2022-12-27T05:46:20.957Z,18.98
2022-12-27T05:51:24.891Z,18.45
2022-12-27T05:56:30.830Z,17.70
2022-12-27T06:01:34.969Z,16.73
2022-12-27T06:06:38.926Z,19.10
2022-12-27T06:11:44.182Z,19.98
2022-12-27T06:16:48.156Z,14.57
2022-12-27T06:21:52.113Z,23.50
2022-12-27T06:26:57.335Z,24.52
2022-12-27T06:32:01.210Z,23.13
2022-12-27T06:37:05.169Z,26.63
2022-12-27T06:42:10.411Z,23.55
2022-12-27T06:47:14.256Z,22.67
2022-12-27T06:52:18.127Z,21.20
2022-12-27T06:57:23.385Z,23.50
2022-12-27T07:02:27.351Z,13.40
2022-12-27T07:07:31.274Z,19.98
2022-12-27T07:12:37.412Z,20.73
2022-12-27T07:17:41.293Z,20.35
2022-12-27T07:22:45.431Z,20.73
2022-12-27T07:27:50.679Z,21.83
2022-12-27T07:32:54.540Z,20.70
2022-12-27T07:37:58.365Z,24.17
2022-12-27T07:43:03.632Z,23.58
2022-12-27T07:48:07.963Z,23.58
2022-12-27T07:53:11.855Z,24.95
2022-12-27T07:58:17.123Z,24.42
2022-12-27T08:03:21.093Z,23.90
2022-12-27T08:08:27.140Z,23.95
2022-12-27T08:13:32.423Z,22.17
2022-12-27T08:18:36.247Z,23.13
2022-12-27T08:23:40.142Z,25.23
2022-12-27T08:28:45.435Z,24.35
2022-12-27T08:33:53.614Z,25.70
2022-12-27T08:39:00.568Z,25.48
2022-12-27T08:44:05.929Z,23.55
2022-12-27T08:49:09.822Z,17.00
2022-12-27T08:54:13.690Z,24.55
2022-12-27T08:59:19.044Z,24.63
2022-12-27T09:04:23.098Z,23.35
2022-12-27T09:09:26.980Z,22.80
2022-12-27T09:14:32.251Z,23.85
2022-12-27T09:19:36.241Z,21.67
2022-12-27T09:24:40.052Z,23.48
2022-12-27T09:29:48.394Z,22.98
2022-12-27T09:34:52.561Z,21.83
2022-12-27T09:39:57.104Z,21.75
2022-12-27T09:45:08.903Z,22.17
2022-12-27T09:50:14.978Z,21.85
2022-12-27T09:55:22.167Z,19.92
2022-12-27T10:00:34.839Z,18.63
2022-12-27T10:05:40.719Z,18.67
2022-12-27T10:10:47.550Z,18.37
2022-12-27T10:16:00.851Z,19.48
2022-12-27T10:21:14.932Z,18.67
2022-12-27T10:26:20.379Z,19.02
2022-12-27T10:31:26.351Z,20.35
2022-12-27T10:36:32.123Z,18.38
2022-12-27T10:41:45.192Z,18.70
2022-12-27T10:46:53.795Z,18.40
2022-12-27T10:51:59.591Z,17.70
2022-12-27T10:57:18.463Z,18.60
2022-12-27T11:02:24.008Z,18.92
2022-12-27T11:07:31.403Z,18.73
2022-12-27T11:12:36.323Z,18.92
2022-12-27T11:17:43.727Z,19.42
2022-12-27T11:22:49.949Z,19.52
2022-12-27T11:27:56.188Z,21.05
2022-12-27T11:33:05.026Z,19.60
2022-12-27T11:38:18.318Z,20.08
2022-12-27T11:43:27.619Z,17.58
2022-12-27T11:48:37.122Z,19.33
2022-12-27T11:54:06.156Z,17.88
2022-12-27T11:59:25.455Z,17.70
2022-12-27T12:04:59.095Z,16.90
2022-12-27T12:10:12.641Z,16.90
2022-12-27T12:15:38.219Z,16.80
2022-12-27T12:21:04.913Z,16.35
2022-12-27T12:26:15.395Z,15.95
2022-12-27T12:31:29.220Z,16.33
2022-12-27T12:36:52.120Z,16.73
2022-12-27T12:42:18.722Z,16.08
2022-12-27T12:47:47.333Z,15.57
2022-12-27T12:53:17.218Z,15.77
2022-12-27T12:58:34.485Z,15.40
2022-12-27T13:03:58.404Z,14.20
2022-12-27T13:09:10.229Z,15.85
2022-12-27T13:14:29.445Z,16.45
2022-12-27T13:19:53.794Z,18.70
2022-12-27T13:25:11.548Z,16.38
2022-12-27T13:30:20.463Z,16.48
2022-12-27T13:35:32.945Z,17.42
2022-12-27T13:40:51.460Z,16.05
2022-12-27T13:46:13.824Z,18.75
2022-12-27T13:51:38.811Z,15.95
2022-12-27T13:56:54.742Z,17.07
2022-12-27T14:02:26.862Z,17.10
2022-12-27T14:07:47.580Z,17.75
2022-12-27T14:13:03.737Z,18.13
2022-12-27T14:18:23.975Z,18.40
2022-12-27T14:24:00.489Z,19.70
2022-12-27T14:29:37.826Z,18.30
2022-12-27T14:35:02.450Z,21.75
2022-12-27T14:40:36.942Z,19.90
2022-12-27T14:46:11.865Z,20.45
2022-12-27T14:52:08.585Z,23.27
2022-12-27T14:57:27.485Z,24.52
2022-12-27T15:02:48.823Z,23.55
2022-12-27T15:08:17.227Z,26.70
2022-12-27T15:13:26.293Z,26.58
2022-12-27T15:18:51.773Z,27.38
2022-12-27T15:23:56.856Z,19.53
2022-12-27T15:29:10.743Z,27.17
2022-12-27T15:34:35.161Z,28.67
2022-12-27T15:39:53.908Z,27.55
2022-12-27T15:45:02.943Z,28.02
2022-12-27T15:50:30.896Z,28.75
2022-12-27T15:55:55.587Z,30.80
2022-12-27T16:01:26.180Z,28.15
2022-12-27T16:06:51.260Z,25.05
2022-12-27T16:12:01.355Z,27.38
2022-12-27T16:17:26.311Z,30.20
2022-12-27T16:22:38.028Z,28.70
2022-12-27T16:27:42.142Z,24.52
2022-12-27T16:32:49.829Z,21.63
2022-12-27T16:37:57.192Z,25.77
2022-12-27T16:43:25.990Z,25.98
2022-12-27T16:48:38.161Z,23.05
2022-12-27T16:53:57.367Z,24.25
2022-12-27T16:59:01.581Z,22.95
2022-12-27T17:04:05.832Z,22.42
2022-12-27T17:09:45.562Z,19.95
2022-12-27T17:14:50.320Z,16.02
2022-12-27T17:20:01.005Z,16.17
2022-12-27T17:25:06.933Z,14.38
2022-12-27T17:35:28.704Z,11.52
2022-12-27T17:40:38.571Z,14.70
2022-12-27T17:45:47.342Z,13.18
2022-12-27T17:50:54.639Z,12.85
2022-12-27T17:56:30.285Z,13.93
2022-12-27T18:01:35.791Z,14.52
2022-12-27T18:06:39.918Z,13.80
2022-12-27T18:11:45.218Z,14.02
2022-12-27T18:16:49.160Z,13.60
2022-12-27T18:21:57.223Z,12.77
2022-12-27T18:27:04.412Z,9.90
2022-12-27T18:32:10.698Z,9.55
2022-12-27T18:37:18.114Z,8.82
2022-12-27T18:42:26.359Z,8.40
2022-12-27T18:47:30.269Z,9.95
2022-12-27T18:52:35.873Z,10.85
2022-12-27T18:57:41.772Z,9.68
2022-12-27T19:07:51.128Z,6.53
2022-12-27T19:12:57.011Z,6.70
2022-12-27T19:23:08.806Z,6.57
2022-12-27T19:28:25.864Z,6.18
2022-12-27T19:33:31.002Z,5.95
2022-12-27T19:38:34.994Z,4.50
2022-12-27T19:43:42.318Z,5.47
2022-12-27T19:49:01.151Z,5.10
2022-12-27T19:54:14.846Z,4.72
2022-12-27T19:59:21.723Z,4.07
2022-12-27T20:04:25.605Z,4.38
2022-12-27T20:09:29.499Z,4.28
2022-12-27T20:14:34.776Z,5.25
2022-12-27T20:19:38.694Z,4.40
2022-12-27T20:24:42.571Z,6.32
2022-12-27T20:29:47.821Z,4.00
2022-12-27T20:34:51.648Z,3.73
2022-12-27T20:39:55.500Z,4.97
2022-12-27T20:45:00.879Z,4.20
2022-12-27T20:50:05.080Z,4.43
2022-12-27T20:55:10.226Z,4.45
2022-12-27T21:00:16.821Z,4.10
2022-12-27T21:05:20.757Z,4.65
2022-12-27T21:10:24.624Z,5.22
2022-12-27T21:15:31.293Z,6.32
2022-12-27T21:20:35.328Z,7.15
2022-12-27T21:25:39.159Z,6.28
2022-12-27T21:30:44.388Z,7.18
2022-12-27T21:35:56.494Z,7.10
2022-12-27T21:41:01.346Z,6.95
2022-12-27T21:46:09.619Z,6.72
2022-12-27T21:51:15.058Z,6.72
2022-12-27T21:56:19.398Z,7.57
2022-12-27T22:01:26.127Z,7.50
2022-12-27T22:06:31.636Z,10.75
2022-12-27T22:11:36.356Z,15.13
2022-12-27T22:16:41.782Z,14.70
2022-12-27T22:21:45.606Z,16.05
2022-12-27T22:26:50.463Z,17.73
2022-12-27T22:31:55.857Z,14.55
2022-12-27T22:36:59.734Z,13.60
2022-12-27T22:42:03.584Z,18.40
2022-12-27T22:47:26.361Z,20.42
2022-12-27T22:52:31.379Z,20.20
2022-12-27T22:57:35.596Z,19.73
2022-12-27T23:02:40.981Z,19.55
2022-12-27T23:08:06.205Z,18.77
2022-12-27T23:13:08.720Z,18.83
2022-12-27T23:18:13.984Z,18.63
2022-12-27T23:23:17.947Z,17.03
2022-12-27T23:28:21.828Z,16.25
2022-12-27T23:33:27.092Z,16.92
2022-12-27T23:38:30.944Z,14.60
2022-12-27T23:43:53.780Z,11.10
2022-12-27T23:49:02.896Z,6.70
2022-12-27T23:54:06.869Z,5.75
2022-12-27T23:59:10.720Z,4.97
